createdAt,value
2022-09-12T00:04:41.287Z,25.65
2022-09-12T00:09:42.960Z,23.85
2022-09-12T00:14:44.566Z,27.92
2022-09-12T00:19:46.237Z,23.48
2022-09-12T00:24:47.839Z,23.45
2022-09-12T00:29:49.461Z,19.13
2022-09-12T00:34:51.091Z,27.67
2022-09-12T00:39:52.752Z,24.77
2022-09-12T00:44:54.449Z,23.17
2022-09-12T00:50:13.125Z,26.83
2022-09-12T00:55:19.606Z,23.38
2022-09-12T01:00:24.283Z,24.15
2022-09-12T01:05:28.327Z,24.65
2022-09-12T01:10:31.613Z,26.17
2022-09-12T01:15:34.054Z,29.45
2022-09-12T01:20:42.606Z,26.27
2022-09-12T01:26:14.982Z,25.38
2022-09-12T01:31:26.716Z,26.02
2022-09-12T01:36:37.566Z,25.40
2022-09-12T01:41:46.936Z,26.83
2022-09-12T01:47:01.081Z,26.63
2022-09-12T01:52:12.187Z,28.95
2022-09-12T01:57:25.667Z,31.48
2022-09-12T02:02:33.313Z,30.65
2022-09-12T02:07:49.523Z,29.30
2022-09-12T02:13:00.669Z,28.48
2022-09-12T02:18:05.534Z,27.15
2022-09-12T02:23:11.920Z,29.35
2022-09-12T02:28:26.600Z,32.63
2022-09-12T02:33:46.995Z,32.03
2022-09-12T02:38:48.882Z,30.80
2022-09-12T02:43:51.650Z,26.73
2022-09-12T02:48:54.141Z,30.75
2022-09-12T02:53:57.107Z,35.08
2022-09-12T02:59:05.223Z,29.02
2022-09-12T03:04:22.068Z,37.63
2022-09-12T03:09:37.539Z,25.38
2022-09-12T03:14:48.546Z,34.63
2022-09-12T03:20:00.758Z,25.58
2022-09-12T03:25:08.022Z,23.30
2022-09-12T03:30:11.047Z,32.10
2022-09-12T03:35:14.345Z,32.50
2022-09-12T03:40:16.158Z,27.58
2022-09-12T03:45:17.904Z,28.63
2022-09-12T03:50:19.576Z,30.08
2022-09-12T03:55:21.159Z,32.28
2022-09-12T04:00:24.298Z,29.70
2022-09-12T04:05:26.655Z,36.58
2022-09-12T04:10:28.251Z,33.38
2022-09-12T04:15:29.959Z,30.42
2022-09-12T04:20:31.566Z,30.35
2022-09-12T04:25:33.179Z,32.05
2022-09-12T04:30:35.228Z,32.55
2022-09-12T04:35:37.234Z,30.55
2022-09-12T04:40:38.846Z,33.35
2022-09-12T04:45:40.485Z,32.78
2022-09-12T04:50:42.105Z,33.92
2022-09-12T04:55:43.769Z,33.25
2022-09-12T05:00:45.390Z,35.22
2022-09-12T05:05:46.992Z,30.63
2022-09-12T05:10:48.597Z,29.10
2022-09-12T05:15:57.860Z,33.97
2022-09-12T05:21:01.051Z,29.92
2022-09-12T05:26:04.694Z,33.05
2022-09-12T05:31:13.537Z,29.30
2022-09-12T05:36:20.822Z,27.83
2022-09-12T05:41:25.588Z,26.15
2022-09-12T05:46:32.745Z,25.77
2022-09-12T05:51:38.073Z,27.77
2022-09-12T05:56:42.522Z,25.40
2022-09-12T06:01:44.829Z,23.40
2022-09-12T06:06:46.926Z,26.25
2022-09-12T06:11:48.553Z,30.23
2022-09-12T06:16:50.623Z,24.42
2022-09-12T06:21:52.776Z,24.48
2022-09-12T06:26:54.601Z,22.63
2022-09-12T06:31:56.201Z,26.13
2022-09-12T06:36:58.004Z,24.20
2022-09-12T06:41:59.611Z,30.02
2022-09-12T06:47:10.981Z,26.65
2022-09-12T06:52:12.655Z,20.30
2022-09-12T06:57:14.781Z,24.63
2022-09-12T07:02:16.403Z,23.45
2022-09-12T07:07:18.064Z,25.05
2022-09-12T07:12:19.685Z,24.85
2022-09-12T07:17:21.328Z,23.30
2022-09-12T07:22:23.029Z,22.77
2022-09-12T07:27:24.706Z,21.88
2022-09-12T07:32:27.079Z,24.10
2022-09-12T07:37:33.030Z,28.95
2022-09-12T07:42:34.659Z,22.63
2022-09-12T07:47:36.566Z,19.80
2022-09-12T07:52:38.213Z,21.10
2022-09-12T07:57:39.837Z,16.65
2022-09-12T08:02:41.511Z,15.88
2022-09-12T08:07:43.163Z,15.05
2022-09-12T08:12:44.802Z,12.38
2022-09-12T08:17:46.428Z,15.48
2022-09-12T08:22:48.083Z,10.52
2022-09-12T08:27:49.706Z,11.43
2022-09-12T08:32:51.314Z,12.05
2022-09-12T08:37:52.908Z,8.23
2022-09-12T08:43:01.525Z,10.05
2022-09-12T08:48:06.028Z,8.10
2022-09-12T08:53:16.368Z,10.20
2022-09-12T08:58:22.820Z,6.00
2022-09-12T09:03:49.389Z,6.60
2022-09-12T09:09:22.088Z,6.75
2022-09-12T09:14:59.162Z,6.90
2022-09-12T09:20:16.308Z,5.78
2022-09-12T09:25:24.495Z,6.03
2022-09-12T09:30:26.534Z,3.40
2022-09-12T09:35:49.074Z,5.13
2022-09-12T09:41:07.136Z,4.50
2022-09-12T09:46:08.950Z,4.55
2022-09-12T09:51:11.893Z,4.35
2022-09-12T09:56:29.223Z,4.47
2022-09-12T10:01:30.954Z,4.03
2022-09-12T10:06:34.408Z,4.97
2022-09-12T10:11:39.764Z,4.45
2022-09-12T10:16:53.419Z,1.83
2022-09-12T10:21:56.247Z,1.95
2022-09-12T10:27:05.872Z,1.77
2022-09-12T10:32:09.331Z,1.95
2022-09-12T10:37:28.851Z,2.63
2022-09-12T10:42:50.438Z,1.55
2022-09-12T10:47:54.442Z,4.70
2022-09-12T10:53:13.858Z,1.70
2022-09-12T10:58:47.056Z,4.22
2022-09-12T11:04:20.583Z,1.75
2022-09-12T11:09:32.991Z,2.88
2022-09-12T11:14:34.534Z,2.40
2022-09-12T11:20:10.521Z,2.65
2022-09-12T11:25:35.135Z,2.20
2022-09-12T11:30:51.673Z,2.20
2022-09-12T11:35:55.576Z,1.67
2022-09-12T11:41:04.220Z,1.35
2022-09-12T11:46:36.357Z,1.40
2022-09-12T11:51:56.620Z,1.30
2022-09-12T11:57:19.992Z,1.02
2022-09-12T12:02:27.788Z,2.22
2022-09-12T12:07:40.248Z,2.30
2022-09-12T12:12:45.218Z,2.35
2022-09-12T12:18:22.040Z,3.28
2022-09-12T12:23:35.404Z,1.40
2022-09-12T12:28:43.112Z,3.90
2022-09-12T12:33:44.656Z,1.02
2022-09-12T12:38:46.426Z,1.40
2022-09-12T12:43:50.840Z,3.38
2022-09-12T12:49:07.411Z,1.40
2022-09-12T12:54:31.193Z,1.65
2022-09-12T12:59:33.684Z,1.45
2022-09-12T13:04:35.469Z,1.40
2022-09-12T13:09:43.693Z,1.30
2022-09-12T13:14:55.203Z,1.45
2022-09-12T13:20:34.569Z,4.65
2022-09-12T13:25:37.393Z,1.58
2022-09-12T13:30:58.334Z,1.10
2022-09-12T13:36:46.252Z,5.75
2022-09-12T13:42:07.493Z,1.27
2022-09-12T13:47:15.293Z,1.30
2022-09-12T13:52:25.789Z,1.40
2022-09-12T13:57:31.895Z,2.05
2022-09-12T14:02:36.081Z,3.53
2022-09-12T14:07:54.495Z,1.95
2022-09-12T14:12:57.451Z,3.53
2022-09-12T14:18:01.806Z,1.27
2022-09-12T14:23:27.585Z,1.30
2022-09-12T14:28:31.200Z,2.67
2022-09-12T14:33:53.440Z,0.88
2022-09-12T14:39:04.148Z,1.30
2022-09-12T14:44:10.619Z,1.33
2022-09-12T14:49:26.887Z,0.90
2022-09-12T14:54:28.539Z,1.73
2022-09-12T14:59:36.131Z,1.10
2022-09-12T15:04:42.259Z,2.45
2022-09-12T15:09:47.277Z,1.77
2022-09-12T15:14:49.123Z,2.10
2022-09-12T15:19:50.747Z,1.48
2022-09-12T15:24:53.378Z,1.73
2022-09-12T15:29:55.195Z,1.88
2022-09-12T15:34:56.921Z,2.55
2022-09-12T15:39:58.548Z,2.15
2022-09-12T15:45:02.593Z,1.50
2022-09-12T15:50:05.290Z,1.58
2022-09-12T15:55:16.755Z,6.88
2022-09-12T16:00:19.408Z,6.18
2022-09-12T16:05:25.738Z,2.58
2022-09-12T16:10:31.281Z,3.28
2022-09-12T16:15:32.940Z,1.60
2022-09-12T16:20:34.559Z,3.53
2022-09-12T16:25:37.614Z,5.20
2022-09-12T16:30:39.358Z,7.55
2022-09-12T16:35:40.947Z,1.90
2022-09-12T16:40:42.571Z,3.25
2022-09-12T16:45:44.831Z,2.28
2022-09-12T16:50:56.504Z,2.80
2022-09-12T16:55:58.200Z,2.08
2022-09-12T17:01:17.951Z,1.80
2022-09-12T17:06:20.132Z,5.95
2022-09-12T17:11:26.931Z,6.10
2022-09-12T17:16:29.006Z,1.50
2022-09-12T17:21:31.197Z,2.55
2022-09-12T17:26:32.971Z,1.95
2022-09-12T17:31:34.681Z,3.65
2022-09-12T17:36:36.992Z,3.33
2022-09-12T17:41:38.924Z,3.67
2022-09-12T17:46:41.112Z,2.88
2022-09-12T17:51:43.989Z,2.17
2022-09-12T17:56:47.369Z,4.18
2022-09-12T18:02:07.440Z,2.47
2022-09-12T18:07:09.154Z,7.40
2022-09-12T18:12:10.988Z,3.13
2022-09-12T18:17:12.578Z,9.25
2022-09-12T18:22:14.270Z,2.40
2022-09-12T18:27:15.898Z,5.53
2022-09-12T18:32:17.489Z,2.65
2022-09-12T18:37:19.082Z,8.27
2022-09-12T18:42:20.687Z,2.92
2022-09-12T18:47:23.416Z,5.32
2022-09-12T18:52:25.076Z,3.10
2022-09-12T18:57:26.683Z,4.53
2022-09-12T19:02:28.647Z,3.75
2022-09-12T19:07:30.280Z,4.43
2022-09-12T19:12:31.863Z,11.38
2022-09-12T19:17:33.462Z,3.78
2022-09-12T19:22:35.104Z,10.40
2022-09-12T19:27:36.803Z,8.38
2022-09-12T19:32:39.297Z,3.45
2022-09-12T19:37:40.900Z,3.78
2022-09-12T19:42:42.921Z,8.10
2022-09-12T19:47:44.560Z,5.05
2022-09-12T19:52:46.157Z,4.15
2022-09-12T19:57:47.783Z,5.18
2022-09-12T20:02:53.547Z,5.03
2022-09-12T20:07:55.217Z,4.40
2022-09-12T20:12:56.819Z,7.65
2022-09-12T20:17:58.427Z,9.77
2022-09-12T20:23:00.037Z,4.43
2022-09-12T20:28:01.636Z,4.75
2022-09-12T20:33:03.246Z,5.50
2022-09-12T20:38:04.831Z,7.72
2022-09-12T20:43:06.443Z,4.40
2022-09-12T20:48:08.106Z,4.78
2022-09-12T20:53:09.989Z,7.88
2022-09-12T20:58:11.575Z,5.45
2022-09-12T21:03:14.703Z,10.38
2022-09-12T21:08:16.402Z,5.28
2022-09-12T21:13:18.058Z,6.88
2022-09-12T21:18:19.653Z,5.03
2022-09-12T21:23:21.884Z,7.50
2022-09-12T21:28:23.526Z,7.90
2022-09-12T21:33:25.161Z,6.05
2022-09-12T21:38:26.780Z,6.90
2022-09-12T21:43:28.380Z,8.15
2022-09-12T21:48:30.201Z,6.57
2022-09-12T21:53:32.273Z,6.55
2022-09-12T21:58:34.481Z,9.32
2022-09-12T22:03:36.143Z,8.50
2022-09-12T22:08:38.928Z,6.53
2022-09-12T22:13:44.031Z,5.82
2022-09-12T22:18:50.652Z,10.27
2022-09-12T22:24:10.556Z,7.97
2022-09-12T22:29:16.128Z,8.18
2022-09-12T22:34:17.734Z,7.18
2022-09-12T22:39:19.420Z,6.72
2022-09-12T22:44:21.102Z,9.95
2022-09-12T22:49:22.759Z,8.57
2022-09-12T22:54:24.383Z,6.82
2022-09-12T22:59:25.982Z,8.52
2022-09-12T23:04:27.708Z,8.90
2022-09-12T23:09:34.633Z,8.15
2022-09-12T23:14:37.063Z,8.30
2022-09-12T23:19:38.660Z,6.20
2022-09-12T23:24:40.352Z,6.57
2022-09-12T23:29:41.984Z,9.00
2022-09-12T23:34:43.579Z,10.63
2022-09-12T23:39:45.239Z,8.35
2022-09-12T23:44:46.854Z,6.70
2022-09-12T23:49:48.480Z,6.57
2022-09-12T23:54:50.067Z,7.80
2022-09-12T23:59:51.739Z,7.43
